sensor_id;sensor_type;location;lat;lon;timestamp;P1;durP1;ratioP1;P2;durP2;ratioP2
50531;SDS011;36483;37.396;-122.212;2022-12-29T00:01:27;19.58;;;4.43;;
50531;SDS011;36483;37.396;-122.212;2022-12-29T00:03:53;18.95;;;4.18;;
50531;SDS011;36483;37.396;-122.212;2022-12-29T00:06:19;21.38;;;4.15;;
50531;SDS011;36483;37.396;-122.212;2022-12-29T00:08:46;21.83;;;4.72;;
50531;SDS011;36483;37.396;-122.212;2022-12-29T00:11:30;23.48;;;4.38;;
50531;SDS011;36483;37.396;-122.212;2022-12-29T00:13:56;19.08;;;3.55;;
50531;SDS011;36483;37.396;-122.212;2022-12-29T00:16:41;13.88;;;3.75;;
50531;SDS011;36483;37.396;-122.212;2022-12-29T00:19:08;12.90;;;2.97;;
50531;SDS011;36483;37.396;-122.212;2022-12-29T00:21:55;14.55;;;3.25;;
50531;SDS011;36483;37.396;-122.212;2022-12-29T00:24:39;14.82;;;3.70;;
50531;SDS011;36483;37.396;-122.212;2022-12-29T00:27:25;18.02;;;3.45;;
50531;SDS011;36483;37.396;-122.212;2022-12-29T00:30:11;14.73;;;3.30;;
50531;SDS011;36483;37.396;-122.212;2022-12-29T00:32:57;13.30;;;2.97;;
50531;SDS011;36483;37.396;-122.212;2022-12-29T00:36:03;15.55;;;3.22;;
50531;SDS011;36483;37.396;-122.212;2022-12-29T00:38:32;11.10;;;2.85;;
50531;SDS011;36483;37.396;-122.212;2022-12-29T00:41:19;14.50;;;3.30;;
50531;SDS011;36483;37.396;-122.212;2022-12-29T00:44:04;16.15;;;2.92;;
50531;SDS011;36483;37.396;-122.212;2022-12-29T00:46:31;12.10;;;3.00;;
50531;SDS011;36483;37.396;-122.212;2022-12-29T00:49:00;12.00;;;3.35;;
50531;SDS011;36483;37.396;-122.212;2022-12-29T00:51:45;16.00;;;3.05;;
50531;SDS011;36483;37.396;-122.212;2022-12-29T00:54:12;18.52;;;3.85;;
50531;SDS011;36483;37.396;-122.212;2022-12-29T00:56:38;17.42;;;3.50;;
50531;SDS011;36483;37.396;-122.212;2022-12-29T00:59:05;15.48;;;3.15;;
50531;SDS011;36483;37.396;-122.212;2022-12-29T01:01:34;15.27;;;3.55;;
50531;SDS011;36483;37.396;-122.212;2022-12-29T01:04:01;14.73;;;2.70;;
50531;SDS011;36483;37.396;-122.212;2022-12-29T01:06:27;17.15;;;2.60;;
50531;SDS011;36483;37.396;-122.212;2022-12-29T01:08:53;13.75;;;3.28;;
50531;SDS011;36483;37.396;-122.212;2022-12-29T01:11:38;14.70;;;2.88;;
50531;SDS011;36483;37.396;-122.212;2022-12-29T01:14:05;13.98;;;2.85;;
50531;SDS011;36483;37.396;-122.212;2022-12-29T01:16:32;18.42;;;3.55;;
50531;SDS011;36483;37.396;-122.212;2022-12-29T01:18:58;17.40;;;3.40;;
50531;SDS011;36483;37.396;-122.212;2022-12-29T01:21:24;16.92;;;3.55;;
50531;SDS011;36483;37.396;-122.212;2022-12-29T01:23:50;13.60;;;3.38;;
50531;SDS011;36483;37.396;-122.212;2022-12-29T01:26:17;12.98;;;2.40;;
50531;SDS011;36483;37.396;-122.212;2022-12-29T01:28:43;15.45;;;3.03;;
50531;SDS011;36483;37.396;-122.212;2022-12-29T01:31:11;13.65;;;2.92;;
50531;SDS011;36483;37.396;-122.212;2022-12-29T01:33:39;14.48;;;3.42;;
50531;SDS011;36483;37.396;-122.212;2022-12-29T01:36:10;14.27;;;3.47;;
50531;SDS011;36483;37.396;-122.212;2022-12-29T01:38:38;15.50;;;3.17;;
50531;SDS011;36483;37.396;-122.212;2022-12-29T01:41:05;11.20;;;3.40;;
50531;SDS011;36483;37.396;-122.212;2022-12-29T01:43:38;16.13;;;3.05;;
50531;SDS011;36483;37.396;-122.212;2022-12-29T01:49:13;20.63;;;3.45;;
50531;SDS011;36483;37.396;-122.212;2022-12-29T01:51:50;14.10;;;4.00;;
50531;SDS011;36483;37.396;-122.212;2022-12-29T01:54:20;13.55;;;2.88;;
50531;SDS011;36483;37.396;-122.212;2022-12-29T01:56:50;12.77;;;3.35;;
50531;SDS011;36483;37.396;-122.212;2022-12-29T01:59:18;19.00;;;3.58;;
50531;SDS011;36483;37.396;-122.212;2022-12-29T02:01:46;10.60;;;3.15;;
50531;SDS011;36483;37.396;-122.212;2022-12-29T02:04:12;16.33;;;3.40;;
50531;SDS011;36483;37.396;-122.212;2022-12-29T02:06:49;15.10;;;3.15;;
50531;SDS011;36483;37.396;-122.212;2022-12-29T02:09:21;8.10;;;2.95;;
50531;SDS011;36483;37.396;-122.212;2022-12-29T02:11:48;17.40;;;3.58;;
50531;SDS011;36483;37.396;-122.212;2022-12-29T02:14:14;13.68;;;2.85;;
50531;SDS011;36483;37.396;-122.212;2022-12-29T02:21:52;13.05;;;3.78;;
50531;SDS011;36483;37.396;-122.212;2022-12-29T02:24:30;13.23;;;4.07;;
50531;SDS011;36483;37.396;-122.212;2022-12-29T02:27:26;13.88;;;3.33;;
50531;SDS011;36483;37.396;-122.212;2022-12-29T02:40:37;14.63;;;3.10;;
50531;SDS011;36483;37.396;-122.212;2022-12-29T02:47:03;10.75;;;2.78;;
50531;SDS011;36483;37.396;-122.212;2022-12-29T02:49:15;13.07;;;3.38;;
50531;SDS011;36483;37.396;-122.212;2022-12-29T02:54:19;12.63;;;3.03;;
50531;SDS011;36483;37.396;-122.212;2022-12-29T02:57:08;12.80;;;3.67;;
50531;SDS011;36483;37.396;-122.212;2022-12-29T02:59:41;11.65;;;2.97;;
50531;SDS011;36483;37.396;-122.212;2022-12-29T03:07:39;11.27;;;2.95;;
50531;SDS011;36483;37.396;-122.212;2022-12-29T03:10:21;13.48;;;2.85;;
50531;SDS011;36483;37.396;-122.212;2022-12-29T03:21:54;17.85;;;3.85;;
50531;SDS011;36483;37.396;-122.212;2022-12-29T03:24:50;15.45;;;3.90;;
50531;SDS011;36483;37.396;-122.212;2022-12-29T03:27:31;13.13;;;3.45;;
50531;SDS011;36483;37.396;-122.212;2022-12-29T03:30:00;15.25;;;3.42;;
50531;SDS011;36483;37.396;-122.212;2022-12-29T03:32:31;13.75;;;3.28;;
50531;SDS011;36483;37.396;-122.212;2022-12-29T03:35:19;11.85;;;3.50;;
50531;SDS011;36483;37.396;-122.212;2022-12-29T03:37:58;15.48;;;3.88;;
50531;SDS011;36483;37.396;-122.212;2022-12-29T03:40:44;14.70;;;3.65;;
50531;SDS011;36483;37.396;-122.212;2022-12-29T03:43:14;14.68;;;3.65;;
50531;SDS011;36483;37.396;-122.212;2022-12-29T03:45:41;11.95;;;3.35;;
50531;SDS011;36483;37.396;-122.212;2022-12-29T03:48:07;14.98;;;3.80;;
50531;SDS011;36483;37.396;-122.212;2022-12-29T03:50:33;11.27;;;3.42;;
50531;SDS011;36483;37.396;-122.212;2022-12-29T03:52:59;14.88;;;3.65;;
50531;SDS011;36483;37.396;-122.212;2022-12-29T03:55:26;14.77;;;3.60;;
50531;SDS011;36483;37.396;-122.212;2022-12-29T03:57:52;15.23;;;4.00;;
50531;SDS011;36483;37.396;-122.212;2022-12-29T04:00:18;16.08;;;4.00;;
50531;SDS011;36483;37.396;-122.212;2022-12-29T04:02:45;11.25;;;3.85;;
50531;SDS011;36483;37.396;-122.212;2022-12-29T04:05:12;10.07;;;3.85;;
50531;SDS011;36483;37.396;-122.212;2022-12-29T04:07:39;12.55;;;3.95;;
50531;SDS011;36483;37.396;-122.212;2022-12-29T04:10:05;13.82;;;4.22;;
50531;SDS011;36483;37.396;-122.212;2022-12-29T04:12:31;14.63;;;3.92;;
50531;SDS011;36483;37.396;-122.212;2022-12-29T04:14:58;11.25;;;3.10;;
50531;SDS011;36483;37.396;-122.212;2022-12-29T04:17:24;16.20;;;3.33;;
50531;SDS011;36483;37.396;-122.212;2022-12-29T04:19:50;12.68;;;3.72;;
50531;SDS011;36483;37.396;-122.212;2022-12-29T04:22:16;14.75;;;3.95;;
50531;SDS011;36483;37.396;-122.212;2022-12-29T04:24:43;20.15;;;3.97;;
50531;SDS011;36483;37.396;-122.212;2022-12-29T04:27:09;13.07;;;3.15;;
50531;SDS011;36483;37.396;-122.212;2022-12-29T04:29:35;13.82;;;3.90;;
50531;SDS011;36483;37.396;-122.212;2022-12-29T04:32:01;11.18;;;3.60;;
50531;SDS011;36483;37.396;-122.212;2022-12-29T04:34:27;11.20;;;4.32;;
50531;SDS011;36483;37.396;-122.212;2022-12-29T04:36:53;16.88;;;4.10;;
50531;SDS011;36483;37.396;-122.212;2022-12-29T04:39:19;13.05;;;3.85;;
50531;SDS011;36483;37.396;-122.212;2022-12-29T04:41:46;12.25;;;3.65;;
50531;SDS011;36483;37.396;-122.212;2022-12-29T04:44:12;11.18;;;3.63;;
50531;SDS011;36483;37.396;-122.212;2022-12-29T04:46:38;16.65;;;3.75;;
50531;SDS011;36483;37.396;-122.212;2022-12-29T04:49:04;15.15;;;3.63;;
50531;SDS011;36483;37.396;-122.212;2022-12-29T04:51:33;16.50;;;4.50;;
50531;SDS011;36483;37.396;-122.212;2022-12-29T04:54:00;8.57;;;3.85;;
50531;SDS011;36483;37.396;-122.212;2022-12-29T04:56:26;12.70;;;3.50;;
50531;SDS011;36483;37.396;-122.212;2022-12-29T04:58:52;15.52;;;3.97;;
50531;SDS011;36483;37.396;-122.212;2022-12-29T05:01:18;13.35;;;3.97;;
50531;SDS011;36483;37.396;-122.212;2022-12-29T05:03:44;18.40;;;3.97;;
50531;SDS011;36483;37.396;-122.212;2022-12-29T05:06:11;18.25;;;4.57;;
50531;SDS011;36483;37.396;-122.212;2022-12-29T05:08:37;14.98;;;4.30;;
50531;SDS011;36483;37.396;-122.212;2022-12-29T05:11:03;14.55;;;4.05;;
50531;SDS011;36483;37.396;-122.212;2022-12-29T05:13:30;13.27;;;4.10;;
50531;SDS011;36483;37.396;-122.212;2022-12-29T05:15:56;18.83;;;4.35;;
50531;SDS011;36483;37.396;-122.212;2022-12-29T05:18:22;16.73;;;4.95;;
50531;SDS011;36483;37.396;-122.212;2022-12-29T05:20:49;12.38;;;3.70;;
50531;SDS011;36483;37.396;-122.212;2022-12-29T05:23:15;13.27;;;4.65;;
50531;SDS011;36483;37.396;-122.212;2022-12-29T05:25:42;18.35;;;4.65;;
50531;SDS011;36483;37.396;-122.212;2022-12-29T05:28:10;14.68;;;4.30;;
50531;SDS011;36483;37.396;-122.212;2022-12-29T05:30:36;14.98;;;4.00;;
50531;SDS011;36483;37.396;-122.212;2022-12-29T05:33:02;16.77;;;4.40;;
50531;SDS011;36483;37.396;-122.212;2022-12-29T05:35:28;15.77;;;3.92;;
50531;SDS011;36483;37.396;-122.212;2022-12-29T05:37:54;21.52;;;4.25;;
50531;SDS011;36483;37.396;-122.212;2022-12-29T05:40:21;17.67;;;4.20;;
50531;SDS011;36483;37.396;-122.212;2022-12-29T05:42:47;20.45;;;4.28;;
50531;SDS011;36483;37.396;-122.212;2022-12-29T05:45:13;15.80;;;4.05;;
50531;SDS011;36483;37.396;-122.212;2022-12-29T05:47:39;18.10;;;3.88;;
50531;SDS011;36483;37.396;-122.212;2022-12-29T05:50:05;17.08;;;4.22;;
50531;SDS011;36483;37.396;-122.212;2022-12-29T05:52:32;12.25;;;3.72;;
50531;SDS011;36483;37.396;-122.212;2022-12-29T05:54:58;13.02;;;4.03;;
50531;SDS011;36483;37.396;-122.212;2022-12-29T05:57:24;19.58;;;4.00;;
50531;SDS011;36483;37.396;-122.212;2022-12-29T05:59:50;11.07;;;3.97;;
50531;SDS011;36483;37.396;-122.212;2022-12-29T06:02:16;18.90;;;4.00;;
50531;SDS011;36483;37.396;-122.212;2022-12-29T06:04:42;11.85;;;3.28;;
50531;SDS011;36483;37.396;-122.212;2022-12-29T06:07:08;16.88;;;3.53;;
50531;SDS011;36483;37.396;-122.212;2022-12-29T06:09:35;16.55;;;3.85;;
50531;SDS011;36483;37.396;-122.212;2022-12-29T06:12:01;16.23;;;3.55;;
50531;SDS011;36483;37.396;-122.212;2022-12-29T06:14:27;9.82;;;3.20;;
50531;SDS011;36483;37.396;-122.212;2022-12-29T06:16:53;14.15;;;3.72;;
50531;SDS011;36483;37.396;-122.212;2022-12-29T06:19:19;16.58;;;3.58;;
50531;SDS011;36483;37.396;-122.212;2022-12-29T06:21:45;18.77;;;3.83;;
50531;SDS011;36483;37.396;-122.212;2022-12-29T06:24:11;12.43;;;3.60;;
50531;SDS011;36483;37.396;-122.212;2022-12-29T06:26:38;14.13;;;3.75;;
50531;SDS011;36483;37.396;-122.212;2022-12-29T06:29:05;15.85;;;3.60;;
50531;SDS011;36483;37.396;-122.212;2022-12-29T06:31:33;11.73;;;3.50;;
50531;SDS011;36483;37.396;-122.212;2022-12-29T06:33:59;13.88;;;3.65;;
50531;SDS011;36483;37.396;-122.212;2022-12-29T06:36:25;10.75;;;3.40;;
50531;SDS011;36483;37.396;-122.212;2022-12-29T06:38:51;10.98;;;3.42;;
50531;SDS011;36483;37.396;-122.212;2022-12-29T06:41:19;12.65;;;3.20;;
50531;SDS011;36483;37.396;-122.212;2022-12-29T06:43:45;9.65;;;3.08;;
50531;SDS011;36483;37.396;-122.212;2022-12-29T06:46:11;10.68;;;3.03;;
50531;SDS011;36483;37.396;-122.212;2022-12-29T06:48:38;14.88;;;3.58;;
50531;SDS011;36483;37.396;-122.212;2022-12-29T06:51:04;12.52;;;3.30;;
50531;SDS011;36483;37.396;-122.212;2022-12-29T06:53:30;11.52;;;3.30;;
50531;SDS011;36483;37.396;-122.212;2022-12-29T06:55:56;17.63;;;3.30;;
50531;SDS011;36483;37.396;-122.212;2022-12-29T06:58:22;14.70;;;3.65;;
50531;SDS011;36483;37.396;-122.212;2022-12-29T07:00:48;14.02;;;3.13;;
50531;SDS011;36483;37.396;-122.212;2022-12-29T07:03:15;13.88;;;3.53;;
50531;SDS011;36483;37.396;-122.212;2022-12-29T07:05:41;10.98;;;3.40;;
50531;SDS011;36483;37.396;-122.212;2022-12-29T07:08:07;13.93;;;3.70;;
50531;SDS011;36483;37.396;-122.212;2022-12-29T07:10:33;13.88;;;3.42;;
50531;SDS011;36483;37.396;-122.212;2022-12-29T07:13:00;12.93;;;3.60;;
50531;SDS011;36483;37.396;-122.212;2022-12-29T07:15:26;12.48;;;3.65;;
50531;SDS011;36483;37.396;-122.212;2022-12-29T07:17:52;10.93;;;3.42;;
50531;SDS011;36483;37.396;-122.212;2022-12-29T07:20:18;13.75;;;4.53;;
50531;SDS011;36483;37.396;-122.212;2022-12-29T07:22:44;12.88;;;3.70;;
50531;SDS011;36483;37.396;-122.212;2022-12-29T07:25:12;12.13;;;2.95;;
50531;SDS011;36483;37.396;-122.212;2022-12-29T07:27:38;17.13;;;3.60;;
50531;SDS011;36483;37.396;-122.212;2022-12-29T07:30:05;13.48;;;3.03;;
50531;SDS011;36483;37.396;-122.212;2022-12-29T07:32:34;15.23;;;3.42;;
50531;SDS011;36483;37.396;-122.212;2022-12-29T07:35:20;11.55;;;3.50;;
50531;SDS011;36483;37.396;-122.212;2022-12-29T07:37:47;12.88;;;3.20;;
50531;SDS011;36483;37.396;-122.212;2022-12-29T07:40:13;15.30;;;4.18;;
50531;SDS011;36483;37.396;-122.212;2022-12-29T07:42:39;12.25;;;3.72;;
50531;SDS011;36483;37.396;-122.212;2022-12-29T07:45:05;17.55;;;4.00;;
50531;SDS011;36483;37.396;-122.212;2022-12-29T07:47:32;16.25;;;3.58;;
50531;SDS011;36483;37.396;-122.212;2022-12-29T07:49:58;14.45;;;3.95;;
50531;SDS011;36483;37.396;-122.212;2022-12-29T07:52:24;10.13;;;3.35;;
50531;SDS011;36483;37.396;-122.212;2022-12-29T07:54:50;17.67;;;4.20;;
50531;SDS011;36483;37.396;-122.212;2022-12-29T07:57:16;19.55;;;4.15;;
50531;SDS011;36483;37.396;-122.212;2022-12-29T07:59:42;17.27;;;3.80;;
50531;SDS011;36483;37.396;-122.212;2022-12-29T08:02:11;14.45;;;3.83;;
50531;SDS011;36483;37.396;-122.212;2022-12-29T08:04:37;12.55;;;3.55;;
50531;SDS011;36483;37.396;-122.212;2022-12-29T08:07:04;15.82;;;3.70;;
50531;SDS011;36483;37.396;-122.212;2022-12-29T08:09:30;10.43;;;3.33;;
50531;SDS011;36483;37.396;-122.212;2022-12-29T08:11:56;12.57;;;4.10;;
50531;SDS011;36483;37.396;-122.212;2022-12-29T08:14:22;14.70;;;3.78;;
50531;SDS011;36483;37.396;-122.212;2022-12-29T08:16:48;18.25;;;4.18;;
50531;SDS011;36483;37.396;-122.212;2022-12-29T08:19:15;10.10;;;3.75;;
50531;SDS011;36483;37.396;-122.212;2022-12-29T08:21:41;12.43;;;3.63;;
50531;SDS011;36483;37.396;-122.212;2022-12-29T08:24:07;13.10;;;3.90;;
50531;SDS011;36483;37.396;-122.212;2022-12-29T08:26:34;14.68;;;3.72;;
50531;SDS011;36483;37.396;-122.212;2022-12-29T08:29:00;10.48;;;3.50;;
50531;SDS011;36483;37.396;-122.212;2022-12-29T08:31:26;18.23;;;3.60;;
50531;SDS011;36483;37.396;-122.212;2022-12-29T08:33:52;13.57;;;3.78;;
50531;SDS011;36483;37.396;-122.212;2022-12-29T08:36:19;9.38;;;3.42;;
50531;SDS011;36483;37.396;-122.212;2022-12-29T08:38:45;9.00;;;3.47;;
50531;SDS011;36483;37.396;-122.212;2022-12-29T08:41:11;13.93;;;3.70;;
50531;SDS011;36483;37.396;-122.212;2022-12-29T08:43:37;11.60;;;3.70;;
50531;SDS011;36483;37.396;-122.212;2022-12-29T08:46:03;16.58;;;4.22;;
50531;SDS011;36483;37.396;-122.212;2022-12-29T08:48:30;16.73;;;3.60;;
50531;SDS011;36483;37.396;-122.212;2022-12-29T08:50:56;15.75;;;3.72;;
50531;SDS011;36483;37.396;-122.212;2022-12-29T08:53:22;11.77;;;3.75;;
50531;SDS011;36483;37.396;-122.212;2022-12-29T08:55:54;15.35;;;3.55;;
50531;SDS011;36483;37.396;-122.212;2022-12-29T08:58:24;16.02;;;3.50;;
50531;SDS011;36483;37.396;-122.212;2022-12-29T09:00:52;15.52;;;3.28;;
50531;SDS011;36483;37.396;-122.212;2022-12-29T09:03:19;14.23;;;3.38;;
50531;SDS011;36483;37.396;-122.212;2022-12-29T09:05:49;13.32;;;3.65;;
50531;SDS011;36483;37.396;-122.212;2022-12-29T09:08:16;9.70;;;3.80;;
50531;SDS011;36483;37.396;-122.212;2022-12-29T09:10:43;13.30;;;3.60;;
50531;SDS011;36483;37.396;-122.212;2022-12-29T09:13:10;15.27;;;3.60;;
50531;SDS011;36483;37.396;-122.212;2022-12-29T09:15:37;11.20;;;3.03;;
50531;SDS011;36483;37.396;-122.212;2022-12-29T09:18:04;9.85;;;3.08;;
50531;SDS011;36483;37.396;-122.212;2022-12-29T09:20:31;15.20;;;4.25;;
50531;SDS011;36483;37.396;-122.212;2022-12-29T09:22:57;10.73;;;3.22;;
50531;SDS011;36483;37.396;-122.212;2022-12-29T09:25:24;11.40;;;3.47;;
50531;SDS011;36483;37.396;-122.212;2022-12-29T09:27:50;10.75;;;3.55;;
50531;SDS011;36483;37.396;-122.212;2022-12-29T09:30:20;13.52;;;3.50;;
50531;SDS011;36483;37.396;-122.212;2022-12-29T09:32:47;12.35;;;3.08;;
50531;SDS011;36483;37.396;-122.212;2022-12-29T09:35:14;14.35;;;3.55;;
50531;SDS011;36483;37.396;-122.212;2022-12-29T09:37:42;12.07;;;3.40;;
50531;SDS011;36483;37.396;-122.212;2022-12-29T09:48:34;8.57;;;2.95;;
50531;SDS011;36483;37.396;-122.212;2022-12-29T09:51:06;17.17;;;3.42;;
50531;SDS011;36483;37.396;-122.212;2022-12-29T09:53:38;12.60;;;3.20;;
50531;SDS011;36483;37.396;-122.212;2022-12-29T09:56:11;10.63;;;2.75;;
50531;SDS011;36483;37.396;-122.212;2022-12-29T10:04:19;12.38;;;2.72;;
50531;SDS011;36483;37.396;-122.212;2022-12-29T10:06:53;14.02;;;3.20;;
50531;SDS011;36483;37.396;-122.212;2022-12-29T10:14:52;10.43;;;2.97;;
50531;SDS011;36483;37.396;-122.212;2022-12-29T10:17:48;15.15;;;3.45;;
50531;SDS011;36483;37.396;-122.212;2022-12-29T10:20:38;11.98;;;2.75;;
50531;SDS011;36483;37.396;-122.212;2022-12-29T10:25:56;14.10;;;3.22;;
50531;SDS011;36483;37.396;-122.212;2022-12-29T10:28:24;8.05;;;2.40;;
50531;SDS011;36483;37.396;-122.212;2022-12-29T10:31:05;10.88;;;2.67;;
50531;SDS011;36483;37.396;-122.212;2022-12-29T10:33:39;11.87;;;3.20;;
50531;SDS011;36483;37.396;-122.212;2022-12-29T10:36:17;7.60;;;2.58;;
50531;SDS011;36483;37.396;-122.212;2022-12-29T10:41:51;13.23;;;3.03;;
50531;SDS011;36483;37.396;-122.212;2022-12-29T10:44:21;13.88;;;3.00;;
50531;SDS011;36483;37.396;-122.212;2022-12-29T10:46:55;12.88;;;3.97;;
50531;SDS011;36483;37.396;-122.212;2022-12-29T10:49:26;9.55;;;2.53;;
50531;SDS011;36483;37.396;-122.212;2022-12-29T10:51:54;10.38;;;2.75;;
50531;SDS011;36483;37.396;-122.212;2022-12-29T10:54:39;11.73;;;2.88;;
50531;SDS011;36483;37.396;-122.212;2022-12-29T10:57:26;10.18;;;3.00;;
50531;SDS011;36483;37.396;-122.212;2022-12-29T10:59:54;13.85;;;2.90;;
50531;SDS011;36483;37.396;-122.212;2022-12-29T11:02:24;11.18;;;2.78;;
50531;SDS011;36483;37.396;-122.212;2022-12-29T11:07:53;8.35;;;2.53;;
50531;SDS011;36483;37.396;-122.212;2022-12-29T11:15:40;11.98;;;2.95;;
50531;SDS011;36483;37.396;-122.212;2022-12-29T11:21:04;10.73;;;2.90;;
50531;SDS011;36483;37.396;-122.212;2022-12-29T11:23:34;11.38;;;2.33;;
50531;SDS011;36483;37.396;-122.212;2022-12-29T11:26:19;8.43;;;2.15;;
50531;SDS011;36483;37.396;-122.212;2022-12-29T11:28:47;7.43;;;2.30;;
50531;SDS011;36483;37.396;-122.212;2022-12-29T11:31:33;10.80;;;2.78;;
50531;SDS011;36483;37.396;-122.212;2022-12-29T11:34:06;8.35;;;2.45;;
50531;SDS011;36483;37.396;-122.212;2022-12-29T11:36:33;9.10;;;2.47;;
50531;SDS011;36483;37.396;-122.212;2022-12-29T11:39:00;8.90;;;2.42;;
50531;SDS011;36483;37.396;-122.212;2022-12-29T11:41:27;8.38;;;2.45;;
50531;SDS011;36483;37.396;-122.212;2022-12-29T11:43:58;11.55;;;3.65;;
50531;SDS011;36483;37.396;-122.212;2022-12-29T11:46:36;6.18;;;2.15;;
50531;SDS011;36483;37.396;-122.212;2022-12-29T11:49:03;14.00;;;2.90;;
50531;SDS011;36483;37.396;-122.212;2022-12-29T11:51:32;7.18;;;2.35;;
50531;SDS011;36483;37.396;-122.212;2022-12-29T11:54:04;7.15;;;2.10;;
50531;SDS011;36483;37.396;-122.212;2022-12-29T11:56:35;9.05;;;2.25;;
50531;SDS011;36483;37.396;-122.212;2022-12-29T12:01:57;7.63;;;2.45;;
50531;SDS011;36483;37.396;-122.212;2022-12-29T12:04:34;4.85;;;1.83;;
50531;SDS011;36483;37.396;-122.212;2022-12-29T12:12:23;9.52;;;2.33;;
50531;SDS011;36483;37.396;-122.212;2022-12-29T12:14:55;6.55;;;2.47;;
50531;SDS011;36483;37.396;-122.212;2022-12-29T12:17:33;6.20;;;1.90;;
50531;SDS011;36483;37.396;-122.212;2022-12-29T12:20:21;6.15;;;1.90;;
50531;SDS011;36483;37.396;-122.212;2022-12-29T12:22:53;6.43;;;2.13;;
50531;SDS011;36483;37.396;-122.212;2022-12-29T12:25:34;8.70;;;1.90;;
50531;SDS011;36483;37.396;-122.212;2022-12-29T12:30:43;11.00;;;2.05;;
50531;SDS011;36483;37.396;-122.212;2022-12-29T12:33:22;5.60;;;1.90;;
50531;SDS011;36483;37.396;-122.212;2022-12-29T12:35:57;10.45;;;2.13;;
50531;SDS011;36483;37.396;-122.212;2022-12-29T12:43:51;8.82;;;2.13;;
50531;SDS011;36483;37.396;-122.212;2022-12-29T12:49:16;6.10;;;2.10;;
50531;SDS011;36483;37.396;-122.212;2022-12-29T13:05:09;7.50;;;1.50;;
50531;SDS011;36483;37.396;-122.212;2022-12-29T13:11:02;4.47;;;1.40;;
50531;SDS011;36483;37.396;-122.212;2022-12-29T13:13:55;4.30;;;1.77;;
50531;SDS011;36483;37.396;-122.212;2022-12-29T13:19:13;6.40;;;1.90;;
50531;SDS011;36483;37.396;-122.212;2022-12-29T13:30:18;5.18;;;1.52;;
50531;SDS011;36483;37.396;-122.212;2022-12-29T13:32:49;5.93;;;1.70;;
50531;SDS011;36483;37.396;-122.212;2022-12-29T13:37:48;4.15;;;1.73;;
50531;SDS011;36483;37.396;-122.212;2022-12-29T13:40:19;7.10;;;1.50;;
50531;SDS011;36483;37.396;-122.212;2022-12-29T13:42:48;6.93;;;1.58;;
50531;SDS011;36483;37.396;-122.212;2022-12-29T13:45:16;5.10;;;1.60;;
50531;SDS011;36483;37.396;-122.212;2022-12-29T13:50:22;4.57;;;1.50;;
50531;SDS011;36483;37.396;-122.212;2022-12-29T13:53:37;3.80;;;1.67;;
50531;SDS011;36483;37.396;-122.212;2022-12-29T13:56:24;3.88;;;1.30;;
50531;SDS011;36483;37.396;-122.212;2022-12-29T14:02:11;5.05;;;1.65;;
50531;SDS011;36483;37.396;-122.212;2022-12-29T14:05:00;8.23;;;1.70;;
50531;SDS011;36483;37.396;-122.212;2022-12-29T14:07:27;8.40;;;1.70;;
50531;SDS011;36483;37.396;-122.212;2022-12-29T14:09:55;8.07;;;2.00;;
50531;SDS011;36483;37.396;-122.212;2022-12-29T14:12:42;7.53;;;1.73;;
50531;SDS011;36483;37.396;-122.212;2022-12-29T14:17:34;6.63;;;1.83;;
50531;SDS011;36483;37.396;-122.212;2022-12-29T14:20:01;6.82;;;1.70;;
50531;SDS011;36483;37.396;-122.212;2022-12-29T14:22:30;7.00;;;1.67;;
50531;SDS011;36483;37.396;-122.212;2022-12-29T14:24:56;7.07;;;1.58;;
50531;SDS011;36483;37.396;-122.212;2022-12-29T14:29:54;10.57;;;1.52;;
50531;SDS011;36483;37.396;-122.212;2022-12-29T14:34:52;6.30;;;1.80;;
50531;SDS011;36483;37.396;-122.212;2022-12-29T14:42:50;8.52;;;1.92;;
50531;SDS011;36483;37.396;-122.212;2022-12-29T14:47:46;11.98;;;1.73;;
50531;SDS011;36483;37.396;-122.212;2022-12-29T14:50:15;9.30;;;1.58;;
50531;SDS011;36483;37.396;-122.212;2022-12-29T14:53:01;6.15;;;1.52;;
50531;SDS011;36483;37.396;-122.212;2022-12-29T15:00:54;6.78;;;1.50;;
50531;SDS011;36483;37.396;-122.212;2022-12-29T15:06:09;6.18;;;1.30;;
50531;SDS011;36483;37.396;-122.212;2022-12-29T15:08:38;6.40;;;1.40;;
50531;SDS011;36483;37.396;-122.212;2022-12-29T15:11:15;5.80;;;1.42;;
50531;SDS011;36483;37.396;-122.212;2022-12-29T15:13:45;3.78;;;1.20;;
50531;SDS011;36483;37.396;-122.212;2022-12-29T15:18:52;6.47;;;1.73;;
50531;SDS011;36483;37.396;-122.212;2022-12-29T15:21:36;8.07;;;1.80;;
50531;SDS011;36483;37.396;-122.212;2022-12-29T15:24:03;6.78;;;1.63;;
50531;SDS011;36483;37.396;-122.212;2022-12-29T15:26:39;4.82;;;1.50;;
50531;SDS011;36483;37.396;-122.212;2022-12-29T15:32:01;4.22;;;1.30;;
50531;SDS011;36483;37.396;-122.212;2022-12-29T15:34:41;3.47;;;1.10;;
50531;SDS011;36483;37.396;-122.212;2022-12-29T15:37:19;8.27;;;1.50;;
50531;SDS011;36483;37.396;-122.212;2022-12-29T15:39:52;3.17;;;1.30;;
50531;SDS011;36483;37.396;-122.212;2022-12-29T15:44:54;4.80;;;1.30;;
50531;SDS011;36483;37.396;-122.212;2022-12-29T15:47:21;3.67;;;1.42;;
50531;SDS011;36483;37.396;-122.212;2022-12-29T15:50:13;3.38;;;1.20;;
50531;SDS011;36483;37.396;-122.212;2022-12-29T15:52:39;5.70;;;1.43;;
50531;SDS011;36483;37.396;-122.212;2022-12-29T15:55:06;4.80;;;1.40;;
50531;SDS011;36483;37.396;-122.212;2022-12-29T15:57:47;6.75;;;1.45;;
50531;SDS011;36483;37.396;-122.212;2022-12-29T16:00:24;4.38;;;1.20;;
50531;SDS011;36483;37.396;-122.212;2022-12-29T16:02:55;2.55;;;1.20;;
50531;SDS011;36483;37.396;-122.212;2022-12-29T16:05:23;3.97;;;0.93;;
50531;SDS011;36483;37.396;-122.212;2022-12-29T16:07:53;4.95;;;1.40;;
50531;SDS011;36483;37.396;-122.212;2022-12-29T16:12:48;3.42;;;0.95;;
50531;SDS011;36483;37.396;-122.212;2022-12-29T16:15:14;5.90;;;1.50;;
50531;SDS011;36483;37.396;-122.212;2022-12-29T16:17:47;3.85;;;1.30;;
50531;SDS011;36483;37.396;-122.212;2022-12-29T16:20:20;5.07;;;1.30;;
50531;SDS011;36483;37.396;-122.212;2022-12-29T16:22:50;3.60;;;1.27;;
50531;SDS011;36483;37.396;-122.212;2022-12-29T16:25:21;5.55;;;1.70;;
50531;SDS011;36483;37.396;-122.212;2022-12-29T16:27:59;6.53;;;1.60;;
50531;SDS011;36483;37.396;-122.212;2022-12-29T16:30:30;4.45;;;1.77;;
50531;SDS011;36483;37.396;-122.212;2022-12-29T16:33:02;6.15;;;1.50;;
50531;SDS011;36483;37.396;-122.212;2022-12-29T16:38:20;9.43;;;2.22;;
50531;SDS011;36483;37.396;-122.212;2022-12-29T16:40:51;7.60;;;2.10;;
50531;SDS011;36483;37.396;-122.212;2022-12-29T16:43:27;6.30;;;2.05;;
50531;SDS011;36483;37.396;-122.212;2022-12-29T16:51:17;4.88;;;1.90;;
50531;SDS011;36483;37.396;-122.212;2022-12-29T16:53:48;10.23;;;2.30;;
50531;SDS011;36483;37.396;-122.212;2022-12-29T16:56:18;8.52;;;2.58;;
50531;SDS011;36483;37.396;-122.212;2022-12-29T16:58:50;5.95;;;2.38;;
50531;SDS011;36483;37.396;-122.212;2022-12-29T17:01:19;8.02;;;2.75;;
50531;SDS011;36483;37.396;-122.212;2022-12-29T17:03:50;7.03;;;2.60;;
50531;SDS011;36483;37.396;-122.212;2022-12-29T17:06:21;7.35;;;2.72;;
50531;SDS011;36483;37.396;-122.212;2022-12-29T17:08:48;6.00;;;2.05;;
50531;SDS011;36483;37.396;-122.212;2022-12-29T17:11:33;8.75;;;2.58;;
50531;SDS011;36483;37.396;-122.212;2022-12-29T17:14:30;5.18;;;2.45;;